Perryville, Arkansas
Current Conditions -  °F | °C
As of 5:53 PM on Friday 21 Nov 2014 (Local Time) from KRUE Reporting Station
Haze Haze  
Wind Chill: 43°   Ceiling: 4700
Heat Index: 47°   Visibility: 6mi
Dew Point: 45°   Wind: 8mph
Humidity: 93%   Direction: 110°ESE
Pressure: 30.23"   Gusts: NA
Location:  35°N, 92.8°W
Report Text: KRUE 212353Z AUTO 11007KT 6SM BR SCT040 OVC047 08/07 A3023 RMK AO2 RAE21 SLP234 P0001 60005 T00830072 10083 20067 51005
Loading
Personal Weather Stations






























Interactive Weather Map New forecast layout! Learn more

10-Day Weather Forecast

Advertisements
Track Severe Weather on mobile